sensor_id;sensor_type;location;lat;lon;timestamp;pressure;altitude;pressure_sealevel;temperature;humidity
59190;BME280;50749;51.636;4.948;2023-04-29T00:02:18;101567.16;;;17.94;55.57
59190;BME280;50749;51.636;4.948;2023-04-29T00:04:44;101578.66;;;17.96;55.83
59190;BME280;50749;51.636;4.948;2023-04-29T00:07:10;101589.28;;;17.94;55.59
59190;BME280;50749;51.636;4.948;2023-04-29T00:09:40;101578.53;;;17.92;55.83
59190;BME280;50749;51.636;4.948;2023-04-29T00:12:06;101587.19;;;17.91;55.86
59190;BME280;50749;51.636;4.948;2023-04-29T00:14:32;101591.09;;;17.90;55.79
59190;BME280;50749;51.636;4.948;2023-04-29T00:16:58;101591.09;;;17.90;55.66
59190;BME280;50749;51.636;4.948;2023-04-29T00:19:24;101588.31;;;17.90;55.80
59190;BME280;50749;51.636;4.948;2023-04-29T00:21:50;101588.66;;;17.88;55.74
59190;BME280;50749;51.636;4.948;2023-04-29T00:24:17;101584.75;;;17.89;55.76
59190;BME280;50749;51.636;4.948;2023-04-29T00:26:42;101589.00;;;17.87;55.81
59190;BME280;50749;51.636;4.948;2023-04-29T00:29:08;101591.75;;;17.87;55.68
59190;BME280;50749;51.636;4.948;2023-04-29T00:31:34;101596.47;;;17.86;55.91
59190;BME280;50749;51.636;4.948;2023-04-29T00:34:01;101594.53;;;17.87;55.82
59190;BME280;50749;51.636;4.948;2023-04-29T00:36:27;101602.81;;;17.87;55.64
59190;BME280;50749;51.636;4.948;2023-04-29T00:38:53;101607.53;;;17.86;55.75
59190;BME280;50749;51.636;4.948;2023-04-29T00:41:19;101599.56;;;17.85;55.33
59190;BME280;50749;51.636;4.948;2023-04-29T00:43:46;101597.13;;;17.83;55.67
59190;BME280;50749;51.636;4.948;2023-04-29T00:46:11;101599.56;;;17.85;55.24
59190;BME280;50749;51.636;4.948;2023-04-29T00:48:38;101593.56;;;17.82;55.50
59190;BME280;50749;51.636;4.948;2023-04-29T00:51:04;101601.88;;;17.82;55.28
59190;BME280;50749;51.636;4.948;2023-04-29T00:53:31;101590.00;;;17.82;55.52
59190;BME280;50749;51.636;4.948;2023-04-29T00:55:57;101599.44;;;17.81;55.28
59190;BME280;50749;51.636;4.948;2023-04-29T00:58:25;101601.41;;;17.80;55.67
59190;BME280;50749;51.636;4.948;2023-04-29T01:01:01;101600.56;;;17.80;55.26
59190;BME280;50749;51.636;4.948;2023-04-29T01:03:29;101605.31;;;17.79;55.33
59190;BME280;50749;51.636;4.948;2023-04-29T01:06:19;101606.44;;;17.78;55.43
59190;BME280;50749;51.636;4.948;2023-04-29T01:11:54;101607.94;;;17.76;55.38
59190;BME280;50749;51.636;4.948;2023-04-29T01:14:22;101614.28;;;17.76;55.43
59190;BME280;50749;51.636;4.948;2023-04-29T01:16:55;101625.34;;;17.76;55.57
59190;BME280;50749;51.636;4.948;2023-04-29T01:22:11;101620.13;;;17.75;55.29
59190;BME280;50749;51.636;4.948;2023-04-29T01:24:39;101615.78;;;17.74;55.64
59190;BME280;50749;51.636;4.948;2023-04-29T01:30:09;101623.25;;;17.73;55.73
59190;BME280;50749;51.636;4.948;2023-04-29T01:32:51;101618.88;;;17.72;55.33
59190;BME280;50749;51.636;4.948;2023-04-29T01:38:21;101624.75;;;17.71;55.71
59190;BME280;50749;51.636;4.948;2023-04-29T01:43:36;101623.09;;;17.70;55.31
59190;BME280;50749;51.636;4.948;2023-04-29T01:46:05;101628.97;;;17.68;55.63
59190;BME280;50749;51.636;4.948;2023-04-29T01:48:31;101636.13;;;17.69;55.30
59190;BME280;50749;51.636;4.948;2023-04-29T01:50:57;101638.91;;;17.69;55.31
59190;BME280;50749;51.636;4.948;2023-04-29T01:53:23;101637.25;;;17.68;55.67
59190;BME280;50749;51.636;4.948;2023-04-29T01:55:49;101642.00;;;17.68;55.46
59190;BME280;50749;51.636;4.948;2023-04-29T01:58:15;101636.47;;;17.68;55.62
59190;BME280;50749;51.636;4.948;2023-04-29T02:00:40;101642.34;;;17.66;55.55
59190;BME280;50749;51.636;4.948;2023-04-29T02:03:07;101645.09;;;17.66;55.69
59190;BME280;50749;51.636;4.948;2023-04-29T02:05:33;101651.44;;;17.67;55.66
59190;BME280;50749;51.636;4.948;2023-04-29T02:07:59;101649.81;;;17.66;55.50
59190;BME280;50749;51.636;4.948;2023-04-29T02:10:26;101652.94;;;17.64;55.46
59190;BME280;50749;51.636;4.948;2023-04-29T02:12:52;101658.47;;;17.64;55.08
59190;BME280;50749;51.636;4.948;2023-04-29T02:15:19;101653.72;;;17.64;55.40
59190;BME280;50749;51.636;4.948;2023-04-29T02:17:45;101664.31;;;17.62;55.31
59190;BME280;50749;51.636;4.948;2023-04-29T02:20:11;101663.84;;;17.60;55.30
59190;BME280;50749;51.636;4.948;2023-04-29T02:22:37;101664.31;;;17.62;55.49
59190;BME280;50749;51.636;4.948;2023-04-29T02:25:04;101672.94;;;17.61;55.31
59190;BME280;50749;51.636;4.948;2023-04-29T02:27:31;101669.38;;;17.60;55.31
59190;BME280;50749;51.636;4.948;2023-04-29T02:29:57;101674.09;;;17.60;55.48
59190;BME280;50749;51.636;4.948;2023-04-29T02:32:23;101671.31;;;17.60;55.30
59190;BME280;50749;51.636;4.948;2023-04-29T02:34:49;101681.25;;;17.61;55.45
59190;BME280;50749;51.636;4.948;2023-04-29T02:37:15;101685.47;;;17.58;55.39
59190;BME280;50749;51.636;4.948;2023-04-29T02:39:41;101691.84;;;17.59;55.24
59190;BME280;50749;51.636;4.948;2023-04-29T02:42:06;101696.53;;;17.58;55.24
59190;BME280;50749;51.636;4.948;2023-04-29T02:44:32;101692.97;;;17.58;55.20
59190;BME280;50749;51.636;4.948;2023-04-29T02:46:58;101708.75;;;17.57;55.62
59190;BME280;50749;51.636;4.948;2023-04-29T02:49:24;101705.19;;;17.57;55.64
59190;BME280;50749;51.636;4.948;2023-04-29T02:51:50;101704.34;;;17.56;55.62
59190;BME280;50749;51.636;4.948;2023-04-29T02:54:16;101704.34;;;17.56;55.51
59190;BME280;50749;51.636;4.948;2023-04-29T02:56:42;101705.53;;;17.55;55.49
59190;BME280;50749;51.636;4.948;2023-04-29T02:59:09;101700.78;;;17.56;55.86
59190;BME280;50749;51.636;4.948;2023-04-29T03:01:35;101710.72;;;17.57;55.42
59190;BME280;50749;51.636;4.948;2023-04-29T03:04:04;101710.22;;;17.55;55.44
59190;BME280;50749;51.636;4.948;2023-04-29T03:06:30;101700.31;;;17.54;55.66
59190;BME280;50749;51.636;4.948;2023-04-29T03:08:57;101703.88;;;17.54;55.68
59190;BME280;50749;51.636;4.948;2023-04-29T03:11:23;101711.38;;;17.54;55.52
59190;BME280;50749;51.636;4.948;2023-04-29T03:13:50;101714.47;;;17.52;55.28
59190;BME280;50749;51.636;4.948;2023-04-29T03:16:15;101715.28;;;17.53;55.51
59190;BME280;50749;51.636;4.948;2023-04-29T03:18:42;101718.03;;;17.53;55.37
59190;BME280;50749;51.636;4.948;2023-04-29T03:21:08;101726.34;;;17.53;55.76
59190;BME280;50749;51.636;4.948;2023-04-29T03:23:34;101724.75;;;17.52;55.43
59190;BME280;50749;51.636;4.948;2023-04-29T03:26:00;101727.50;;;17.52;55.58
59190;BME280;50749;51.636;4.948;2023-04-29T03:28:26;101720.34;;;17.51;55.63
59190;BME280;50749;51.636;4.948;2023-04-29T03:30:52;101721.47;;;17.50;55.56
59190;BME280;50749;51.636;4.948;2023-04-29T03:33:18;101732.19;;;17.51;55.76
59190;BME280;50749;51.636;4.948;2023-04-29T03:35:43;101717.09;;;17.49;55.71
59190;BME280;50749;51.636;4.948;2023-04-29T03:38:10;101730.94;;;17.49;55.48
59190;BME280;50749;51.636;4.948;2023-04-29T03:40:36;101724.56;;;17.48;55.41
59190;BME280;50749;51.636;4.948;2023-04-29T03:43:02;101730.94;;;17.49;55.29
59190;BME280;50749;51.636;4.948;2023-04-29T03:45:28;101737.59;;;17.48;55.29
59190;BME280;50749;51.636;4.948;2023-04-29T03:47:54;101734.81;;;17.48;55.61
59190;BME280;50749;51.636;4.948;2023-04-29T03:50:20;101734.03;;;17.47;55.41
59190;BME280;50749;51.636;4.948;2023-04-29T03:52:46;101741.47;;;17.46;55.64
59190;BME280;50749;51.636;4.948;2023-04-29T03:55:12;101738.72;;;17.46;55.47
59190;BME280;50749;51.636;4.948;2023-04-29T03:57:38;101740.69;;;17.46;55.71
59190;BME280;50749;51.636;4.948;2023-04-29T04:00:04;101729.16;;;17.44;55.72
59190;BME280;50749;51.636;4.948;2023-04-29T04:02:30;101731.91;;;17.44;55.39
59190;BME280;50749;51.636;4.948;2023-04-29T04:04:56;101737.13;;;17.45;55.80
59190;BME280;50749;51.636;4.948;2023-04-29T04:07:23;101746.53;;;17.44;55.34
59190;BME280;50749;51.636;4.948;2023-04-29T04:09:49;101738.25;;;17.44;55.31
59190;BME280;50749;51.636;4.948;2023-04-29T04:12:15;101748.19;;;17.45;55.31
59190;BME280;50749;51.636;4.948;2023-04-29T04:14:40;101749.31;;;17.44;55.31
59190;BME280;50749;51.636;4.948;2023-04-29T04:17:07;101757.59;;;17.44;55.46
59190;BME280;50749;51.636;4.948;2023-04-29T04:19:33;101756.00;;;17.43;55.68
59190;BME280;50749;51.636;4.948;2023-04-29T04:21:59;101756.78;;;17.44;55.56
59190;BME280;50749;51.636;4.948;2023-04-29T04:24:24;101757.13;;;17.42;55.68
59190;BME280;50749;51.636;4.948;2023-04-29T04:26:50;101760.69;;;17.43;55.71
59190;BME280;50749;51.636;4.948;2023-04-29T04:29:16;101760.69;;;17.43;55.46
59190;BME280;50749;51.636;4.948;2023-04-29T04:31:42;101762.66;;;17.42;55.50
59190;BME280;50749;51.636;4.948;2023-04-29T04:34:07;101767.38;;;17.42;55.18
59190;BME280;50749;51.636;4.948;2023-04-29T04:36:33;101763.78;;;17.41;55.51
59190;BME280;50749;51.636;4.948;2023-04-29T04:38:59;101780.38;;;17.41;55.47
59190;BME280;50749;51.636;4.948;2023-04-29T04:41:25;101779.56;;;17.41;55.47
59190;BME280;50749;51.636;4.948;2023-04-29T04:43:51;101783.13;;;17.41;55.34
59190;BME280;50749;51.636;4.948;2023-04-29T04:46:17;101789.81;;;17.40;55.64
59190;BME280;50749;51.636;4.948;2023-04-29T04:48:43;101805.25;;;17.41;55.29
59190;BME280;50749;51.636;4.948;2023-04-29T04:51:10;101799.25;;;17.39;55.26
59190;BME280;50749;51.636;4.948;2023-04-29T04:53:36;101807.53;;;17.39;55.41
59190;BME280;50749;51.636;4.948;2023-04-29T04:56:02;101810.31;;;17.39;55.53
59190;BME280;50749;51.636;4.948;2023-04-29T04:58:29;101810.31;;;17.39;55.46
59190;BME280;50749;51.636;4.948;2023-04-29T05:00:59;101811.47;;;17.38;55.47
59190;BME280;50749;51.636;4.948;2023-04-29T05:03:25;101817.00;;;17.38;55.48
59190;BME280;50749;51.636;4.948;2023-04-29T05:05:55;101819.75;;;17.38;55.38
59190;BME280;50749;51.636;4.948;2023-04-29T05:08:21;101813.41;;;17.38;55.52
59190;BME280;50749;51.636;4.948;2023-04-29T05:10:47;101819.25;;;17.36;55.52
59190;BME280;50749;51.636;4.948;2023-04-29T05:13:13;101826.41;;;17.37;55.46
59190;BME280;50749;51.636;4.948;2023-04-29T05:15:40;101824.78;;;17.36;55.47
59190;BME280;50749;51.636;4.948;2023-04-29T05:18:06;101827.53;;;17.36;55.62
59190;BME280;50749;51.636;4.948;2023-04-29T05:20:32;101827.53;;;17.36;55.82
59190;BME280;50749;51.636;4.948;2023-04-29T05:22:58;101828.06;;;17.38;55.76
59190;BME280;50749;51.636;4.948;2023-04-29T05:25:24;101837.28;;;17.42;55.80
59190;BME280;50749;51.636;4.948;2023-04-29T05:27:49;101842.63;;;17.48;55.67
59190;BME280;50749;51.636;4.948;2023-04-29T05:30:16;101835.31;;;17.52;55.57
59190;BME280;50749;51.636;4.948;2023-04-29T05:32:43;101839.50;;;17.58;55.67
59190;BME280;50749;51.636;4.948;2023-04-29T05:35:10;101849.25;;;17.64;55.58
59190;BME280;50749;51.636;4.948;2023-04-29T05:37:36;101844.81;;;17.72;55.61
59190;BME280;50749;51.636;4.948;2023-04-29T05:40:03;101838.28;;;17.76;55.20
59190;BME280;50749;51.636;4.948;2023-04-29T05:42:29;101842.81;;;17.81;55.51
59190;BME280;50749;51.636;4.948;2023-04-29T05:44:55;101848.50;;;17.85;55.33
59190;BME280;50749;51.636;4.948;2023-04-29T05:47:20;101855.84;;;17.89;55.40
59190;BME280;50749;51.636;4.948;2023-04-29T05:49:47;101847.22;;;17.91;55.22
59190;BME280;50749;51.636;4.948;2023-04-29T05:52:14;101861.19;;;17.94;54.81
59190;BME280;50749;51.636;4.948;2023-04-29T05:54:40;101864.09;;;17.98;54.81
59190;BME280;50749;51.636;4.948;2023-04-29T05:57:06;101866.19;;;18.01;55.00
59190;BME280;50749;51.636;4.948;2023-04-29T05:59:32;101873.84;;;18.04;55.19
59190;BME280;50749;51.636;4.948;2023-04-29T06:01:59;101880.31;;;18.08;54.99
59190;BME280;50749;51.636;4.948;2023-04-29T06:04:25;101882.41;;;18.11;54.70
59190;BME280;50749;51.636;4.948;2023-04-29T06:06:52;101885.66;;;18.13;54.82
59190;BME280;50749;51.636;4.948;2023-04-29T06:09:20;101884.66;;;18.18;55.01
59190;BME280;50749;51.636;4.948;2023-04-29T06:11:46;101894.72;;;18.23;54.88
59190;BME280;50749;51.636;4.948;2023-04-29T06:14:12;101896.84;;;18.26;54.79
59190;BME280;50749;51.636;4.948;2023-04-29T06:16:39;101901.66;;;18.29;54.64
59190;BME280;50749;51.636;4.948;2023-04-29T06:19:05;101902.63;;;18.33;54.67
59190;BME280;50749;51.636;4.948;2023-04-29T06:21:31;101908.31;;;18.36;54.81
59190;BME280;50749;51.636;4.948;2023-04-29T06:23:57;101919.53;;;18.40;54.83
59190;BME280;50749;51.636;4.948;2023-04-29T06:26:23;101911.34;;;18.44;54.52
59190;BME280;50749;51.636;4.948;2023-04-29T06:28:49;101911.03;;;18.45;54.55
59190;BME280;50749;51.636;4.948;2023-04-29T06:31:15;101914.25;;;18.47;54.19
59190;BME280;50749;51.636;4.948;2023-04-29T06:33:42;101914.75;;;18.49;54.62
59190;BME280;50749;51.636;4.948;2023-04-29T06:36:08;101921.22;;;18.53;54.66
59190;BME280;50749;51.636;4.948;2023-04-29T06:38:35;101922.88;;;18.54;54.13
59190;BME280;50749;51.636;4.948;2023-04-29T06:41:01;101921.84;;;18.59;54.45
59190;BME280;50749;51.636;4.948;2023-04-29T06:43:28;101928.66;;;18.62;54.42
59190;BME280;50749;51.636;4.948;2023-04-29T06:45:54;101935.47;;;18.64;54.47
59190;BME280;50749;51.636;4.948;2023-04-29T06:48:20;101942.66;;;18.65;54.34
59190;BME280;50749;51.636;4.948;2023-04-29T06:50:54;101945.41;;;18.65;54.23
59190;BME280;50749;51.636;4.948;2023-04-29T06:53:20;101949.50;;;18.68;53.96
59190;BME280;50749;51.636;4.948;2023-04-29T06:55:46;101948.31;;;18.69;54.19
59190;BME280;50749;51.636;4.948;2023-04-29T06:58:14;101960.72;;;18.71;53.95
59190;BME280;50749;51.636;4.948;2023-04-29T07:00:43;101961.16;;;18.73;54.06
59190;BME280;50749;51.636;4.948;2023-04-29T07:03:09;101958.88;;;18.75;54.20
59190;BME280;50749;51.636;4.948;2023-04-29T07:05:36;101962.44;;;18.76;54.05
59190;BME280;50749;51.636;4.948;2023-04-29T07:08:04;101954.13;;;18.76;53.95
59190;BME280;50749;51.636;4.948;2023-04-29T07:10:30;101967.66;;;18.78;54.12
59190;BME280;50749;51.636;4.948;2023-04-29T07:12:56;101970.09;;;18.79;54.11
59190;BME280;50749;51.636;4.948;2023-04-29T07:15:22;101974.50;;;18.80;54.08
59190;BME280;50749;51.636;4.948;2023-04-29T07:17:48;101972.53;;;18.81;54.20
59190;BME280;50749;51.636;4.948;2023-04-29T07:20:13;101980.50;;;18.82;53.73
59190;BME280;50749;51.636;4.948;2023-04-29T07:22:39;101975.78;;;18.83;54.01
59190;BME280;50749;51.636;4.948;2023-04-29T07:25:05;101983.78;;;18.84;54.20
59190;BME280;50749;51.636;4.948;2023-04-29T07:27:33;101982.97;;;18.84;53.97
59190;BME280;50749;51.636;4.948;2023-04-29T07:29:59;101979.41;;;18.83;54.06
59190;BME280;50749;51.636;4.948;2023-04-29T07:32:26;101985.75;;;18.84;54.23
59190;BME280;50749;51.636;4.948;2023-04-29T07:34:52;101986.53;;;18.84;53.97
59190;BME280;50749;51.636;4.948;2023-04-29T07:37:18;101990.94;;;18.85;53.83
59190;BME280;50749;51.636;4.948;2023-04-29T07:39:44;101987.03;;;18.86;54.09
59190;BME280;50749;51.636;4.948;2023-04-29T07:42:10;101990.63;;;18.87;53.96
59190;BME280;50749;51.636;4.948;2023-04-29T07:44:36;102000.06;;;18.86;53.67
59190;BME280;50749;51.636;4.948;2023-04-29T07:47:02;102000.88;;;18.86;54.18
59190;BME280;50749;51.636;4.948;2023-04-29T07:49:28;102002.03;;;18.85;54.11
59190;BME280;50749;51.636;4.948;2023-04-29T07:51:54;102003.16;;;18.84;54.22
59190;BME280;50749;51.636;4.948;2023-04-29T07:54:19;102011.13;;;18.86;53.79
59190;BME280;50749;51.636;4.948;2023-04-29T07:56:47;102006.44;;;18.86;53.96
59190;BME280;50749;51.636;4.948;2023-04-29T07:59:13;102012.31;;;18.85;53.92
59190;BME280;50749;51.636;4.948;2023-04-29T08:01:42;102017.19;;;18.79;53.99
59190;BME280;50749;51.636;4.948;2023-04-29T08:04:07;102014.59;;;18.74;53.60
59190;BME280;50749;51.636;4.948;2023-04-29T08:06:34;102016.31;;;18.66;52.94
59190;BME280;50749;51.636;4.948;2023-04-29T08:09:00;102022.03;;;18.61;52.43
59190;BME280;50749;51.636;4.948;2023-04-29T08:11:26;102024.63;;;18.57;53.52
59190;BME280;50749;51.636;4.948;2023-04-29T08:13:52;102019.94;;;18.58;53.66
59190;BME280;50749;51.636;4.948;2023-04-29T08:16:19;102025.47;;;18.58;54.21
59190;BME280;50749;51.636;4.948;2023-04-29T08:18:46;102027.91;;;18.60;54.31
59190;BME280;50749;51.636;4.948;2023-04-29T08:21:12;102027.25;;;18.63;54.10
59190;BME280;50749;51.636;4.948;2023-04-29T08:23:38;102021.00;;;18.66;54.00
59190;BME280;50749;51.636;4.948;2023-04-29T08:26:05;102033.72;;;18.67;54.12
59190;BME280;50749;51.636;4.948;2023-04-29T08:28:30;102026.25;;;18.59;53.69
59190;BME280;50749;51.636;4.948;2023-04-29T08:30:56;102025.31;;;18.54;52.64
59190;BME280;50749;51.636;4.948;2023-04-29T08:33:22;102027.78;;;18.47;52.75
59190;BME280;50749;51.636;4.948;2023-04-29T08:35:48;102030.88;;;18.46;54.04
59190;BME280;50749;51.636;4.948;2023-04-29T08:38:21;102027.69;;;18.35;52.61
59190;BME280;50749;51.636;4.948;2023-04-29T08:40:47;102030.94;;;18.37;53.12
59190;BME280;50749;51.636;4.948;2023-04-29T08:43:13;102035.00;;;18.40;53.91
59190;BME280;50749;51.636;4.948;2023-04-29T08:45:41;102029.59;;;18.43;53.58
59190;BME280;50749;51.636;4.948;2023-04-29T08:48:08;102028.94;;;18.46;53.79
59190;BME280;50749;51.636;4.948;2023-04-29T08:50:39;102031.53;;;18.51;53.87
59190;BME280;50749;51.636;4.948;2023-04-29T08:53:05;102034.09;;;18.56;53.81
59190;BME280;50749;51.636;4.948;2023-04-29T08:55:40;102027.91;;;18.60;53.79
59190;BME280;50749;51.636;4.948;2023-04-29T08:58:07;102036.22;;;18.60;53.24
59190;BME280;50749;51.636;4.948;2023-04-29T09:00:34;102037.34;;;18.59;53.53
59190;BME280;50749;51.636;4.948;2023-04-29T09:03:04;102040.59;;;18.61;53.53
59190;BME280;50749;51.636;4.948;2023-04-29T09:05:37;102041.22;;;18.66;53.62
59190;BME280;50749;51.636;4.948;2023-04-29T09:08:03;102042.50;;;18.69;54.00
59190;BME280;50749;51.636;4.948;2023-04-29T09:10:30;102041.38;;;18.70;54.08
59190;BME280;50749;51.636;4.948;2023-04-29T09:12:57;102052.59;;;18.73;53.86
59190;BME280;50749;51.636;4.948;2023-04-29T09:15:24;102056.63;;;18.76;53.93
59190;BME280;50749;51.636;4.948;2023-04-29T09:17:49;102059.75;;;18.74;52.66
59190;BME280;50749;51.636;4.948;2023-04-29T09:22:55;102045.41;;;18.72;53.36
59190;BME280;50749;51.636;4.948;2023-04-29T09:25:21;102051.09;;;18.76;52.87
59190;BME280;50749;51.636;4.948;2023-04-29T09:27:47;102057.78;;;18.75;52.63
59190;BME280;50749;51.636;4.948;2023-04-29T09:30:13;102063.19;;;18.71;52.69
59190;BME280;50749;51.636;4.948;2023-04-29T09:32:42;102058.66;;;18.67;52.89
59190;BME280;50749;51.636;4.948;2023-04-29T09:35:38;102065.50;;;18.69;53.18
59190;BME280;50749;51.636;4.948;2023-04-29T09:38:12;102056.53;;;18.64;51.77
59190;BME280;50749;51.636;4.948;2023-04-29T09:40:40;102068.47;;;18.55;51.61
59190;BME280;50749;51.636;4.948;2023-04-29T09:43:16;102077.44;;;18.52;52.57
59190;BME280;50749;51.636;4.948;2023-04-29T09:45:44;102071.56;;;18.54;52.80
59190;BME280;50749;51.636;4.948;2023-04-29T09:48:12;102068.00;;;18.53;52.29
59190;BME280;50749;51.636;4.948;2023-04-29T09:50:39;102075.84;;;18.51;52.43
59190;BME280;50749;51.636;4.948;2023-04-29T09:53:07;102073.88;;;18.52;52.59
59190;BME280;50749;51.636;4.948;2023-04-29T09:55:57;102070.28;;;18.51;51.88
59190;BME280;50749;51.636;4.948;2023-04-29T09:58:33;102071.75;;;18.49;52.13
59190;BME280;50749;51.636;4.948;2023-04-29T10:01:04;102086.91;;;18.51;52.27
59190;BME280;50749;51.636;4.948;2023-04-29T10:03:37;102094.75;;;18.49;53.08
59190;BME280;50749;51.636;4.948;2023-04-29T10:06:05;102094.41;;;18.51;53.08
59190;BME280;50749;51.636;4.948;2023-04-29T10:08:32;102086.72;;;18.56;53.54
59190;BME280;50749;51.636;4.948;2023-04-29T10:11:00;102095.03;;;18.56;53.96
59190;BME280;50749;51.636;4.948;2023-04-29T10:13:26;102099.91;;;18.60;54.00
59190;BME280;50749;51.636;4.948;2023-04-29T10:16:24;102095.31;;;18.64;53.84
59190;BME280;50749;51.636;4.948;2023-04-29T10:18:53;102096.94;;;18.65;53.99
59190;BME280;50749;51.636;4.948;2023-04-29T10:21:28;102083.09;;;18.65;54.08
59190;BME280;50749;51.636;4.948;2023-04-29T10:23:58;102092.53;;;18.64;53.87
59190;BME280;50749;51.636;4.948;2023-04-29T10:26:28;102096.47;;;18.63;53.92
59190;BME280;50749;51.636;4.948;2023-04-29T10:28:55;102094.50;;;18.63;54.19
59190;BME280;50749;51.636;4.948;2023-04-29T10:31:24;102102.34;;;18.61;54.03
59190;BME280;50749;51.636;4.948;2023-04-29T10:33:53;102095.16;;;18.60;54.19
59190;BME280;50749;51.636;4.948;2023-04-29T10:36:20;102099.91;;;18.60;54.61
59190;BME280;50749;51.636;4.948;2023-04-29T10:38:48;102098.28;;;18.59;54.92
59190;BME280;50749;51.636;4.948;2023-04-29T10:41:22;102091.09;;;18.57;54.67
59190;BME280;50749;51.636;4.948;2023-04-29T10:43:58;102099.75;;;18.56;55.41
59190;BME280;50749;51.636;4.948;2023-04-29T10:46:25;102097.31;;;18.54;55.35
59190;BME280;50749;51.636;4.948;2023-04-29T10:49:02;102106.75;;;18.53;55.30
59190;BME280;50749;51.636;4.948;2023-04-29T10:51:33;102102.88;;;18.54;55.31
59190;BME280;50749;51.636;4.948;2023-04-29T10:54:08;102110.00;;;18.55;55.50
59190;BME280;50749;51.636;4.948;2023-04-29T10:59:01;102102.88;;;18.54;55.21
59190;BME280;50749;51.636;4.948;2023-04-29T11:01:50;102102.03;;;18.54;55.13
59190;BME280;50749;51.636;4.948;2023-04-29T11:04:18;102101.22;;;18.53;55.48
59190;BME280;50749;51.636;4.948;2023-04-29T11:06:55;102098.47;;;18.53;55.44
59190;BME280;50749;51.636;4.948;2023-04-29T11:14:24;102112.31;;;18.53;55.62
59190;BME280;50749;51.636;4.948;2023-04-29T11:16:56;102113.44;;;18.52;55.61
59190;BME280;50749;51.636;4.948;2023-04-29T11:19:25;102108.72;;;18.53;55.83
59190;BME280;50749;51.636;4.948;2023-04-29T11:22:11;102113.44;;;18.52;55.73
59190;BME280;50749;51.636;4.948;2023-04-29T11:24:48;102106.75;;;18.53;55.82
59190;BME280;50749;51.636;4.948;2023-04-29T11:27:14;102104.31;;;18.52;56.30
59190;BME280;50749;51.636;4.948;2023-04-29T11:29:40;102110.19;;;18.50;55.86
59190;BME280;50749;51.636;4.948;2023-04-29T11:32:06;102110.19;;;18.50;55.66
59190;BME280;50749;51.636;4.948;2023-04-29T11:34:33;102098.78;;;18.52;56.06
59190;BME280;50749;51.636;4.948;2023-04-29T11:36:58;102103.53;;;18.51;55.81
59190;BME280;50749;51.636;4.948;2023-04-29T11:39:26;102096.03;;;18.52;56.26
59190;BME280;50749;51.636;4.948;2023-04-29T11:42:02;102101.88;;;18.50;56.05
59190;BME280;50749;51.636;4.948;2023-04-29T11:44:28;102107.44;;;18.50;56.05
59190;BME280;50749;51.636;4.948;2023-04-29T11:47:06;102106.28;;;18.51;56.11
59190;BME280;50749;51.636;4.948;2023-04-29T11:49:33;102112.16;;;18.50;56.33
59190;BME280;50749;51.636;4.948;2023-04-29T11:51:59;102110.19;;;18.50;56.56
59190;BME280;50749;51.636;4.948;2023-04-29T11:54:27;102110.84;;;18.47;56.50
59190;BME280;50749;51.636;4.948;2023-04-29T11:56:53;102108.09;;;18.47;56.54
59190;BME280;50749;51.636;4.948;2023-04-29T11:59:20;102098.16;;;18.46;56.73
59190;BME280;50749;51.636;4.948;2023-04-29T12:01:48;102106.47;;;18.46;56.66
59190;BME280;50749;51.636;4.948;2023-04-29T12:04:14;102109.25;;;18.46;56.74
59190;BME280;50749;51.636;4.948;2023-04-29T12:06:40;102105.63;;;18.46;56.74
59190;BME280;50749;51.636;4.948;2023-04-29T12:09:07;102110.38;;;18.45;56.62
59190;BME280;50749;51.636;4.948;2023-04-29T12:11:33;102099.31;;;18.45;56.41
59190;BME280;50749;51.636;4.948;2023-04-29T12:14:00;102107.28;;;18.47;56.72
59190;BME280;50749;51.636;4.948;2023-04-29T12:16:33;102103.38;;;18.48;56.68
59190;BME280;50749;51.636;4.948;2023-04-29T12:19:00;102104.50;;;18.47;56.69
59190;BME280;50749;51.636;4.948;2023-04-29T12:21:26;102103.38;;;18.48;56.37
59190;BME280;50749;51.636;4.948;2023-04-29T12:23:58;102104.97;;;18.49;56.66
59190;BME280;50749;51.636;4.948;2023-04-29T12:26:27;102104.19;;;18.48;56.52
59190;BME280;50749;51.636;4.948;2023-04-29T12:28:53;102106.16;;;18.48;56.85
59190;BME280;50749;51.636;4.948;2023-04-29T12:31:22;102110.03;;;18.47;57.09
59190;BME280;50749;51.636;4.948;2023-04-29T12:33:52;102112.34;;;18.45;56.68
59190;BME280;50749;51.636;4.948;2023-04-29T12:36:18;102115.09;;;18.45;57.06
59190;BME280;50749;51.636;4.948;2023-04-29T12:38:46;102116.25;;;18.44;57.03
59190;BME280;50749;51.636;4.948;2023-04-29T12:41:12;102109.91;;;18.43;57.14
59190;BME280;50749;51.636;4.948;2023-04-29T12:43:42;102121.44;;;18.45;56.80
59190;BME280;50749;51.636;4.948;2023-04-29T12:46:09;102111.88;;;18.43;57.23
59190;BME280;50749;51.636;4.948;2023-04-29T12:48:39;102119.00;;;18.44;56.89
59190;BME280;50749;51.636;4.948;2023-04-29T12:51:08;102122.09;;;18.42;57.20
59190;BME280;50749;51.636;4.948;2023-04-29T12:53:37;102124.06;;;18.42;57.42
59190;BME280;50749;51.636;4.948;2023-04-29T12:56:04;102120.50;;;18.41;57.09
59190;BME280;50749;51.636;4.948;2023-04-29T12:58:30;102119.66;;;18.41;57.28
59190;BME280;50749;51.636;4.948;2023-04-29T13:00:57;102113.31;;;18.40;56.96
59190;BME280;50749;51.636;4.948;2023-04-29T13:03:23;102119.34;;;18.42;56.88
59190;BME280;50749;51.636;4.948;2023-04-29T13:05:49;102126.84;;;18.42;57.41
59190;BME280;50749;51.636;4.948;2023-04-29T13:08:18;102123.28;;;18.41;57.51
59190;BME280;50749;51.636;4.948;2023-04-29T13:10:44;102129.94;;;18.40;57.38
59190;BME280;50749;51.636;4.948;2023-04-29T13:13:10;102128.81;;;18.41;57.53
59190;BME280;50749;51.636;4.948;2023-04-29T13:15:36;102123.28;;;18.41;57.00
59190;BME280;50749;51.636;4.948;2023-04-29T13:18:04;102127.97;;;18.41;57.45